• Join FlightAware (Why Join?)
  • Login
  • US Flag 
04:26AM EDT


 

Airport Tracker/Info


-or-


 

Live Flight TrackerFlight Track Log ✈ TSS5 ✈ 22-Jul-2013 ✈ KEVV - KLAF

Flight Track Log - Related Links

Times and Time Zones

All times are in EDT time to prevent confusion due to time zone crossing. See the TSS5 flight status page for this flight to view local times or setup timezone preferences in your user account.

Time Position Orientation Groundspeed Altitude Reporting Facility
EDT Latitude Longitude Course Direction KTS MPH feet Rate Location/Type
10:11AM 38.1039 -87.5200 12° North 120 138 2,800  Level Indianapolis Center
10:12AM 38.1372 -87.5114 11° North 121 139 3,800 840 Climbing Indianapolis Center
10:13AM 38.1711 -87.5014 13° North 122 140 4,600 780 Climbing Indianapolis Center
10:14AM 38.2056 -87.4925 11° North 123 142 5,400 720 Climbing Indianapolis Center
10:15AM 38.3049 -87.4653 12° North  Level FlightAware Approximate
10:15AM 38.2406 -87.4867 North 125 144 6,100  Level Indianapolis Center
10:16AM 38.3497 -87.4530 12° North  Level FlightAware Approximate
10:16AM 38.2772 -87.4794 North 128 147 6,700  Level Indianapolis Center
10:17AM 38.3228 -87.4708 North 136 157 7,100 180 Climbing Indianapolis Center
10:18AM 38.3658 -87.4564 15° North 152 175 7,100  Level Indianapolis Center
10:19AM 38.4119 -87.4425 13° North 164 189 7,100  Level Indianapolis Center
10:20AM 38.4572 -87.4314 11° North 165 190 7,100  Level Indianapolis Center
10:21AM 38.5033 -87.4186 12° North 168 193 7,100  Level Indianapolis Center
10:22AM 38.5481 -87.4106 North 163 188 7,100  Level Indianapolis Center
10:23AM 38.5933 -87.3986 12° North 164 189 7,100  Level Indianapolis Center
10:24AM 38.6392 -87.3872 11° North 166 191 7,100  Level Indianapolis Center
10:25AM 38.6856 -87.3761 11° North 168 193 7,100  Level Indianapolis Center
10:26AM 38.7314 -87.3639 12° North 167 192 7,100  Level Indianapolis Center
10:27AM 38.7861 -87.3508 11° North 167 192 7,100  Level Indianapolis Center
10:28AM 38.8311 -87.3400 11° North 165 190 7,100  Level Indianapolis Center
10:29AM 38.8761 -87.3278 12° North 164 189 7,100  Level Indianapolis Center
10:30AM 38.9233 -87.3169 10° North 169 194 7,100  Level Indianapolis Center
10:31AM 38.9672 -87.3056 11° North 164 189 7,100  Level Indianapolis Center
10:32AM 39.0128 -87.2942 11° North 164 189 7,100  Level Indianapolis Center
10:33AM 39.0575 -87.2842 10° North 163 188 7,100  Level Indianapolis Center
10:34AM 39.1025 -87.2719 12° North 163 188 7,100  Level Indianapolis Center
10:35AM 39.1481 -87.2603 11° North 162 186 7,100  Level Indianapolis Center
10:36AM 39.1931 -87.2497 10° North 164 189 7,100  Level Indianapolis Center
10:37AM 39.2456 -87.2358 12° North 162 186 7,100  Level Indianapolis Center
10:38AM 39.2919 -87.2242 11° North 165 190 7,100  Level Indianapolis Center
10:39AM 39.3375 -87.2147 North 166 191 7,100  Level Indianapolis Center
10:41AM 39.3806 -87.2025 12° North 164 189 7,100  Level Indianapolis Center
10:42AM 39.4250 -87.1903 12° North 162 186 7,100  Level Indianapolis Center
10:43AM 39.4697 -87.1789 11° North 164 189 7,100  Level Indianapolis Center
10:44AM 39.5150 -87.1678 11° North 165 190 7,100  Level Indianapolis Center
10:45AM 39.5603 -87.1567 11° North 166 191 7,100  Level Indianapolis Center
10:46AM 39.6147 -87.1433 11° North 166 191 7,100  Level Indianapolis Center
10:47AM 39.6597 -87.1317 11° North 165 190 7,100  Level Indianapolis Center
10:48AM 39.7058 -87.1206 11° North 167 192 7,100  Level Indianapolis Center
10:49AM 39.7519 -87.1081 12° North 169 194 7,100  Level Indianapolis Center
10:50AM 39.7978 -87.0964 11° North 168 193 7,100  Level Indianapolis Center
10:51AM 39.8419 -87.0842 12° North 165 190 7,100 -60 Level Indianapolis Center
10:52AM 39.8853 -87.0736 11° North 161 185 7,000 -540 Descending Indianapolis Center
10:53AM 39.9422 -87.0594 11° North 171 197 6,000 -900 Descending Indianapolis Center
10:54AM 39.9925 -87.0453 12° North 179 206 5,200 -480 Descending Indianapolis Center
10:55AM 40.0414 -87.0325 11° North 181 208 5,100 -60 Descending Indianapolis Center
10:56AM 40.0864 -87.0214 11° North 175 201 5,100  Level Indianapolis Center
10:57AM 40.1306 -87.0100 11° North 169 194 5,100  Level Indianapolis Center
10:58AM 40.1567 -87.0042 10° North 163 188 5,100 -300 Level Chicago Center
10:59AM 40.2097 -86.9894 12° North 162 186 4,600 -720 Descending Chicago Center
11:00AM 40.2561 -86.9781 11° North 164 189 3,700 -780 Descending Chicago Center
11:01AM 40.3036 -86.9656 11° North 168 193 3,100 -300 Descending Chicago Center
11:02AM 40.3500 -86.9525 12° North 166 191 3,100 -180 Level Chicago Center
11:03AM 40.3897 -86.9431 10° North 159 183 2,800 -300 Descending Chicago Center